sensor_id;sensor_type;location;lat;lon;timestamp;pressure;altitude;pressure_sealevel;temperature;humidity
77263;BME280;66373;52.334;4.806;2023-04-29T00:01:38;101431.31;;;16.76;49.11
77263;BME280;66373;52.334;4.806;2023-04-29T00:04:07;101459.75;;;16.93;49.32
77263;BME280;66373;52.334;4.806;2023-04-29T00:06:34;101466.69;;;16.94;49.20
77263;BME280;66373;52.334;4.806;2023-04-29T00:09:01;101452.91;;;16.87;49.22
77263;BME280;66373;52.334;4.806;2023-04-29T00:11:29;101459.75;;;16.93;49.32
77263;BME280;66373;52.334;4.806;2023-04-29T00:13:57;101463.28;;;16.89;49.31
77263;BME280;66373;52.334;4.806;2023-04-29T00:16:25;101457.25;;;16.85;49.26
77263;BME280;66373;52.334;4.806;2023-04-29T00:18:52;101464.97;;;16.90;49.20
77263;BME280;66373;52.334;4.806;2023-04-29T00:21:21;101440.84;;;16.74;49.02
77263;BME280;66373;52.334;4.806;2023-04-29T00:23:49;101459.78;;;16.90;49.17
77263;BME280;66373;52.334;4.806;2023-04-29T00:26:16;101463.31;;;16.81;49.25
77263;BME280;66373;52.334;4.806;2023-04-29T00:28:46;101480.59;;;16.88;49.29
77263;BME280;66373;52.334;4.806;2023-04-29T00:31:13;101475.44;;;16.84;49.43
77263;BME280;66373;52.334;4.806;2023-04-29T00:33:41;101491.88;;;16.87;49.27
77263;BME280;66373;52.334;4.806;2023-04-29T00:36:08;101492.75;;;16.88;49.28
77263;BME280;66373;52.334;4.806;2023-04-29T00:38:37;101496.22;;;16.87;49.31
77263;BME280;66373;52.334;4.806;2023-04-29T00:41:04;101494.47;;;16.86;49.25
77263;BME280;66373;52.334;4.806;2023-04-29T00:43:32;101500.53;;;16.86;49.23
77263;BME280;66373;52.334;4.806;2023-04-29T00:45:59;101480.69;;;16.72;49.19
77263;BME280;66373;52.334;4.806;2023-04-29T00:48:26;101489.31;;;16.80;49.27
77263;BME280;66373;52.334;4.806;2023-04-29T00:50:53;101499.69;;;16.80;49.32
77263;BME280;66373;52.334;4.806;2023-04-29T00:53:21;101508.34;;;16.85;49.29
77263;BME280;66373;52.334;4.806;2023-04-29T00:55:50;101518.75;;;16.85;49.29
77263;BME280;66373;52.334;4.806;2023-04-29T00:58:18;101504.88;;;16.83;49.21
77263;BME280;66373;52.334;4.806;2023-04-29T01:00:45;101495.41;;;16.74;49.29
77263;BME280;66373;52.334;4.806;2023-04-29T01:03:14;101515.28;;;16.83;49.23
77263;BME280;66373;52.334;4.806;2023-04-29T01:05:42;101485.03;;;16.65;49.16
77263;BME280;66373;52.334;4.806;2023-04-29T01:08:17;101506.63;;;16.78;49.41
77263;BME280;66373;52.334;4.806;2023-04-29T01:10:52;101508.34;;;16.82;49.29
77263;BME280;66373;52.334;4.806;2023-04-29T01:13:28;101487.66;;;16.60;49.17
77263;BME280;66373;52.334;4.806;2023-04-29T01:16:01;101487.66;;;16.63;49.19
77263;BME280;66373;52.334;4.806;2023-04-29T01:18:32;101522.22;;;16.81;49.13
77263;BME280;66373;52.334;4.806;2023-04-29T01:21:00;101520.50;;;16.80;49.26
77263;BME280;66373;52.334;4.806;2023-04-29T01:23:29;101528.28;;;16.80;49.17
77263;BME280;66373;52.334;4.806;2023-04-29T01:25:56;101531.75;;;16.80;49.19
77263;BME280;66373;52.334;4.806;2023-04-29T01:28:56;101499.78;;;16.61;49.34
77263;BME280;66373;52.334;4.806;2023-04-29T01:31:33;101533.50;;;16.78;49.17
77263;BME280;66373;52.334;4.806;2023-04-29T01:34:08;101542.16;;;16.77;49.16
77263;BME280;66373;52.334;4.806;2023-04-29T01:36:43;101535.22;;;16.78;49.22
77263;BME280;66373;52.334;4.806;2023-04-29T01:39:19;101545.63;;;16.78;49.18
77263;BME280;66373;52.334;4.806;2023-04-29T01:42:06;101530.94;;;16.68;49.11
77263;BME280;66373;52.334;4.806;2023-04-29T01:44:35;101543.88;;;16.77;49.29
77263;BME280;66373;52.334;4.806;2023-04-29T01:47:02;101538.69;;;16.75;49.27
77263;BME280;66373;52.334;4.806;2023-04-29T01:49:40;101535.25;;;16.72;49.31
77263;BME280;66373;52.334;4.806;2023-04-29T01:52:07;101548.22;;;16.75;49.35
77263;BME280;66373;52.334;4.806;2023-04-29T01:54:37;101544.75;;;16.73;49.10
77263;BME280;66373;52.334;4.806;2023-04-29T01:57:05;101551.69;;;16.74;49.41
77263;BME280;66373;52.334;4.806;2023-04-29T01:59:58;101540.44;;;16.72;49.30
77263;BME280;66373;52.334;4.806;2023-04-29T02:02:38;101523.16;;;16.60;49.26
77263;BME280;66373;52.334;4.806;2023-04-29T02:05:16;101543.03;;;16.72;49.21
77263;BME280;66373;52.334;4.806;2023-04-29T02:07:52;101549.97;;;16.71;49.30
77263;BME280;66373;52.334;4.806;2023-04-29T02:10:21;101530.09;;;16.58;49.32
77263;BME280;66373;52.334;4.806;2023-04-29T02:12:53;101564.69;;;16.72;49.42
77263;BME280;66373;52.334;4.806;2023-04-29T02:15:20;101551.72;;;16.66;49.20
77263;BME280;66373;52.334;4.806;2023-04-29T02:17:47;101562.94;;;16.71;49.22
77263;BME280;66373;52.334;4.806;2023-04-29T02:20:14;101562.09;;;16.71;49.44
77263;BME280;66373;52.334;4.806;2023-04-29T02:22:42;101570.75;;;16.70;49.30
77263;BME280;66373;52.334;4.806;2023-04-29T02:25:09;101548.28;;;16.55;49.39
77263;BME280;66373;52.334;4.806;2023-04-29T02:27:38;101558.66;;;16.59;49.45
77263;BME280;66373;52.334;4.806;2023-04-29T02:30:06;101573.34;;;16.68;49.28
77263;BME280;66373;52.334;4.806;2023-04-29T02:32:33;101572.50;;;16.65;49.23
77263;BME280;66373;52.334;4.806;2023-04-29T02:35:00;101571.63;;;16.67;49.27
77263;BME280;66373;52.334;4.806;2023-04-29T02:37:27;101588.94;;;16.68;49.40
77263;BME280;66373;52.334;4.806;2023-04-29T02:39:54;101582.88;;;16.68;49.06
77263;BME280;66373;52.334;4.806;2023-04-29T02:42:21;101586.34;;;16.67;49.42
77263;BME280;66373;52.334;4.806;2023-04-29T02:44:50;101583.75;;;16.67;49.32
77263;BME280;66373;52.334;4.806;2023-04-29T02:47:17;101559.53;;;16.48;49.29
77263;BME280;66373;52.334;4.806;2023-04-29T02:49:44;101600.19;;;16.66;49.36
77263;BME280;66373;52.334;4.806;2023-04-29T02:52:11;101592.41;;;16.66;49.43
77263;BME280;66373;52.334;4.806;2023-04-29T02:54:39;101598.47;;;16.65;49.39
77263;BME280;66373;52.334;4.806;2023-04-29T02:57:06;101595.88;;;16.61;49.44
77263;BME280;66373;52.334;4.806;2023-04-29T02:59:33;101599.34;;;16.63;49.38
77263;BME280;66373;52.334;4.806;2023-04-29T03:02:02;101600.22;;;16.62;49.52
77263;BME280;66373;52.334;4.806;2023-04-29T03:04:29;101601.94;;;16.63;49.35
77263;BME280;66373;52.334;4.806;2023-04-29T03:06:56;101604.53;;;16.57;49.36
77263;BME280;66373;52.334;4.806;2023-04-29T03:09:25;101598.50;;;16.54;49.55
77263;BME280;66373;52.334;4.806;2023-04-29T03:11:53;101574.28;;;16.41;49.31
77263;BME280;66373;52.334;4.806;2023-04-29T03:14:20;101606.28;;;16.55;49.37
77263;BME280;66373;52.334;4.806;2023-04-29T03:16:48;101614.06;;;16.55;49.48
77263;BME280;66373;52.334;4.806;2023-04-29T03:19:16;101622.72;;;16.60;49.50
77263;BME280;66373;52.334;4.806;2023-04-29T03:21:43;101627.91;;;16.60;49.45
77263;BME280;66373;52.334;4.806;2023-04-29T03:24:11;101626.19;;;16.59;49.52
77263;BME280;66373;52.334;4.806;2023-04-29T03:26:39;101610.63;;;16.47;49.38
77263;BME280;66373;52.334;4.806;2023-04-29T03:29:07;101630.53;;;16.59;49.32
77263;BME280;66373;52.334;4.806;2023-04-29T03:31:34;101629.66;;;16.58;49.37
77263;BME280;66373;52.334;4.806;2023-04-29T03:34:02;101631.38;;;16.59;49.59
77263;BME280;66373;52.334;4.806;2023-04-29T03:36:33;101633.97;;;16.58;49.48
77263;BME280;66373;52.334;4.806;2023-04-29T03:39:04;101633.13;;;16.57;49.45
77263;BME280;66373;52.334;4.806;2023-04-29T03:41:32;101634.84;;;16.57;49.58
77263;BME280;66373;52.334;4.806;2023-04-29T03:43:59;101630.53;;;16.51;49.55
77263;BME280;66373;52.334;4.806;2023-04-29T03:46:27;101628.78;;;16.50;49.50
77263;BME280;66373;52.334;4.806;2023-04-29T03:48:54;101634.84;;;16.52;49.61
77263;BME280;66373;52.334;4.806;2023-04-29T03:51:22;101635.72;;;16.54;49.46
77263;BME280;66373;52.334;4.806;2023-04-29T03:53:55;101634.84;;;16.46;49.33
77263;BME280;66373;52.334;4.806;2023-04-29T03:56:23;101635.72;;;16.44;49.58
77263;BME280;66373;52.334;4.806;2023-04-29T03:58:51;101652.16;;;16.50;49.34
77263;BME280;66373;52.334;4.806;2023-04-29T04:01:20;101659.09;;;16.54;49.40
77263;BME280;66373;52.334;4.806;2023-04-29T04:03:47;101647.84;;;16.49;49.54
77263;BME280;66373;52.334;4.806;2023-04-29T04:06:14;101652.16;;;16.53;49.49
77263;BME280;66373;52.334;4.806;2023-04-29T04:08:41;101655.63;;;16.52;49.48
77263;BME280;66373;52.334;4.806;2023-04-29T04:11:17;101666.88;;;16.53;49.46
77263;BME280;66373;52.334;4.806;2023-04-29T04:13:48;101666.03;;;16.52;49.57
77263;BME280;66373;52.334;4.806;2023-04-29T04:16:17;101664.28;;;16.51;49.59
77263;BME280;66373;52.334;4.806;2023-04-29T04:18:44;101642.69;;;16.36;49.49
77263;BME280;66373;52.334;4.806;2023-04-29T04:21:11;101664.28;;;16.51;49.49
77263;BME280;66373;52.334;4.806;2023-04-29T04:23:42;101660.84;;;16.43;49.52
77263;BME280;66373;52.334;4.806;2023-04-29T04:26:12;101676.41;;;16.51;49.47
77263;BME280;66373;52.334;4.806;2023-04-29T04:28:46;101672.94;;;16.44;49.77
77263;BME280;66373;52.334;4.806;2023-04-29T04:31:24;101684.19;;;16.49;49.58
77263;BME280;66373;52.334;4.806;2023-04-29T04:33:51;101686.78;;;16.49;49.53
77263;BME280;66373;52.334;4.806;2023-04-29T04:36:18;101692.00;;;16.49;49.37
77263;BME280;66373;52.334;4.806;2023-04-29T04:38:46;101669.50;;;16.30;49.36
77263;BME280;66373;52.334;4.806;2023-04-29T04:41:14;101701.50;;;16.49;49.60
77263;BME280;66373;52.334;4.806;2023-04-29T04:43:43;101698.06;;;16.48;49.47
77263;BME280;66373;52.334;4.806;2023-04-29T04:46:34;101700.66;;;16.48;49.44
77263;BME280;66373;52.334;4.806;2023-04-29T04:49:14;101705.84;;;16.48;49.42
77263;BME280;66373;52.334;4.806;2023-04-29T04:51:47;101679.03;;;16.26;49.55
77263;BME280;66373;52.334;4.806;2023-04-29T04:54:15;101723.16;;;16.46;49.53
77263;BME280;66373;52.334;4.806;2023-04-29T04:56:42;101712.75;;;16.40;49.41
77263;BME280;66373;52.334;4.806;2023-04-29T04:59:09;101723.16;;;16.46;49.52
77263;BME280;66373;52.334;4.806;2023-04-29T05:01:39;101728.34;;;16.46;49.56
77263;BME280;66373;52.334;4.806;2023-04-29T05:04:06;101727.47;;;16.46;49.73
77263;BME280;66373;52.334;4.806;2023-04-29T05:06:33;101726.63;;;16.45;49.60
77263;BME280;66373;52.334;4.806;2023-04-29T05:09:00;101734.41;;;16.45;49.49
77263;BME280;66373;52.334;4.806;2023-04-29T05:11:28;101714.53;;;16.32;49.59
77263;BME280;66373;52.334;4.806;2023-04-29T05:14:08;101720.56;;;16.28;49.47
77263;BME280;66373;52.334;4.806;2023-04-29T05:16:36;101750.84;;;16.44;49.68
77263;BME280;66373;52.334;4.806;2023-04-29T05:19:04;101712.78;;;16.22;49.55
77263;BME280;66373;52.334;4.806;2023-04-29T05:21:35;101751.72;;;16.43;49.52
77263;BME280;66373;52.334;4.806;2023-04-29T05:24:02;101750.84;;;16.44;49.59
77263;BME280;66373;52.334;4.806;2023-04-29T05:26:29;101760.38;;;16.44;49.52
77263;BME280;66373;52.334;4.806;2023-04-29T05:28:59;101756.91;;;16.43;49.48
77263;BME280;66373;52.334;4.806;2023-04-29T05:31:28;101751.72;;;16.40;49.51
77263;BME280;66373;52.334;4.806;2023-04-29T05:34:00;101763.84;;;16.44;49.70
77263;BME280;66373;52.334;4.806;2023-04-29T05:36:28;101771.63;;;16.44;49.40
77263;BME280;66373;52.334;4.806;2023-04-29T05:38:56;101733.56;;;16.31;49.49
77263;BME280;66373;52.334;4.806;2023-04-29T05:41:24;101761.25;;;16.44;49.29
77263;BME280;66373;52.334;4.806;2023-04-29T05:44:06;101759.50;;;16.40;49.24
77263;BME280;66373;52.334;4.806;2023-04-29T05:46:33;101762.97;;;16.45;49.26
77263;BME280;66373;52.334;4.806;2023-04-29T05:49:01;101773.38;;;16.45;49.21
77263;BME280;66373;52.334;4.806;2023-04-29T05:51:29;101756.91;;;16.39;49.17
77263;BME280;66373;52.334;4.806;2023-04-29T05:53:57;101775.97;;;16.47;49.28
77263;BME280;66373;52.334;4.806;2023-04-29T05:56:25;101777.69;;;16.48;49.19
77263;BME280;66373;52.334;4.806;2023-04-29T05:58:54;101776.81;;;16.41;49.26
77263;BME280;66373;52.334;4.806;2023-04-29T06:01:22;101783.75;;;16.48;49.04
77263;BME280;66373;52.334;4.806;2023-04-29T06:03:49;101790.69;;;16.49;49.08
77263;BME280;66373;52.334;4.806;2023-04-29T06:06:43;101776.81;;;16.43;49.27
77263;BME280;66373;52.334;4.806;2023-04-29T06:09:16;101793.28;;;16.51;49.20
77263;BME280;66373;52.334;4.806;2023-04-29T06:11:45;101791.53;;;16.50;49.20
77263;BME280;66373;52.334;4.806;2023-04-29T06:14:12;101804.53;;;16.51;49.17
77263;BME280;66373;52.334;4.806;2023-04-29T06:16:39;101801.06;;;16.52;49.17
77263;BME280;66373;52.334;4.806;2023-04-29T06:19:07;101808.00;;;16.53;49.17
77263;BME280;66373;52.334;4.806;2023-04-29T06:21:35;101820.13;;;16.54;49.26
77263;BME280;66373;52.334;4.806;2023-04-29T06:24:04;101816.66;;;16.55;49.17
77263;BME280;66373;52.334;4.806;2023-04-29T06:26:32;101790.66;;;16.40;49.13
77263;BME280;66373;52.334;4.806;2023-04-29T06:28:59;101816.66;;;16.58;49.22
77263;BME280;66373;52.334;4.806;2023-04-29T06:31:26;101823.59;;;16.56;49.12
77263;BME280;66373;52.334;4.806;2023-04-29T06:33:58;101828.78;;;16.59;49.24
77263;BME280;66373;52.334;4.806;2023-04-29T06:36:26;101831.41;;;16.61;49.22
77263;BME280;66373;52.334;4.806;2023-04-29T06:39:07;101840.91;;;16.63;48.98
77263;BME280;66373;52.334;4.806;2023-04-29T06:41:34;101846.13;;;16.65;49.19
77263;BME280;66373;52.334;4.806;2023-04-29T06:44:21;101846.13;;;16.67;49.28
77263;BME280;66373;52.334;4.806;2023-04-29T06:47:15;101848.72;;;16.68;49.18
77263;BME280;66373;52.334;4.806;2023-04-29T06:49:47;101851.31;;;16.70;49.20
77263;BME280;66373;52.334;4.806;2023-04-29T06:52:14;101846.13;;;16.67;49.20
77263;BME280;66373;52.334;4.806;2023-04-29T06:54:43;101850.47;;;16.72;49.29
77263;BME280;66373;52.334;4.806;2023-04-29T06:57:10;101831.38;;;16.55;49.34
77263;BME280;66373;52.334;4.806;2023-04-29T06:59:37;101860.00;;;16.73;49.23
77263;BME280;66373;52.334;4.806;2023-04-29T07:02:05;101865.19;;;16.75;49.43
77263;BME280;66373;52.334;4.806;2023-04-29T07:04:32;101871.25;;;16.77;49.32
77263;BME280;66373;52.334;4.806;2023-04-29T07:07:02;101816.63;;;16.42;49.24
77263;BME280;66373;52.334;4.806;2023-04-29T07:09:30;101830.50;;;16.48;49.36
77263;BME280;66373;52.334;4.806;2023-04-29T07:11:58;101852.19;;;16.64;49.42
77263;BME280;66373;52.334;4.806;2023-04-29T07:14:29;101879.06;;;16.80;49.39
77263;BME280;66373;52.334;4.806;2023-04-29T07:16:56;101887.72;;;16.82;49.47
77263;BME280;66373;52.334;4.806;2023-04-29T07:19:24;101879.91;;;16.77;49.43
77263;BME280;66373;52.334;4.806;2023-04-29T07:21:51;101877.31;;;16.76;49.48
77263;BME280;66373;52.334;4.806;2023-04-29T07:24:18;101901.59;;;16.87;49.37
77263;BME280;66373;52.334;4.806;2023-04-29T07:26:47;101908.50;;;16.89;49.59
77263;BME280;66373;52.334;4.806;2023-04-29T07:29:17;101868.66;;;16.71;49.48
77263;BME280;66373;52.334;4.806;2023-04-29T07:31:44;101905.91;;;16.89;49.50
77263;BME280;66373;52.334;4.806;2023-04-29T07:34:11;101876.47;;;16.83;49.52
77263;BME280;66373;52.334;4.806;2023-04-29T07:36:38;101912.84;;;16.96;49.57
77263;BME280;66373;52.334;4.806;2023-04-29T07:39:05;101876.47;;;16.77;49.45
77263;BME280;66373;52.334;4.806;2023-04-29T07:41:33;101913.72;;;17.00;49.54
77263;BME280;66373;52.334;4.806;2023-04-29T07:44:00;101874.75;;;16.85;49.58
77263;BME280;66373;52.334;4.806;2023-04-29T07:46:29;101898.97;;;16.93;49.43
77263;BME280;66373;52.334;4.806;2023-04-29T07:48:57;101906.78;;;16.93;49.78
77263;BME280;66373;52.334;4.806;2023-04-29T07:51:25;101924.97;;;17.07;49.74
77263;BME280;66373;52.334;4.806;2023-04-29T07:53:54;101918.91;;;17.03;49.57
77263;BME280;66373;52.334;4.806;2023-04-29T07:56:21;101922.38;;;17.11;49.52
77263;BME280;66373;52.334;4.806;2023-04-29T07:58:50;101919.78;;;17.10;49.76
77263;BME280;66373;52.334;4.806;2023-04-29T08:01:17;101840.91;;;16.63;49.76
77263;BME280;66373;52.334;4.806;2023-04-29T08:03:46;101884.28;;;16.89;49.76
77263;BME280;66373;52.334;4.806;2023-04-29T08:06:19;101884.28;;;16.87;49.46
77263;BME280;66373;52.334;4.806;2023-04-29T08:08:47;101867.78;;;16.73;49.72
77263;BME280;66373;52.334;4.806;2023-04-29T08:11:18;101877.34;;;16.82;49.81
77263;BME280;66373;52.334;4.806;2023-04-29T08:13:49;101921.53;;;17.12;49.73
77263;BME280;66373;52.334;4.806;2023-04-29T08:16:16;101898.97;;;16.98;49.67
77263;BME280;66373;52.334;4.806;2023-04-29T08:18:43;101834.88;;;16.69;49.79
77263;BME280;66373;52.334;4.806;2023-04-29T08:21:12;101884.25;;;16.92;49.83
77263;BME280;66373;52.334;4.806;2023-04-29T08:23:39;101921.50;;;17.21;49.76
77263;BME280;66373;52.334;4.806;2023-04-29T08:26:08;101935.38;;;17.23;49.69
77263;BME280;66373;52.334;4.806;2023-04-29T08:28:35;101925.84;;;17.25;49.61
77263;BME280;66373;52.334;4.806;2023-04-29T08:31:03;101936.25;;;17.25;49.65
77263;BME280;66373;52.334;4.806;2023-04-29T08:33:31;101934.50;;;17.34;49.90
77263;BME280;66373;52.334;4.806;2023-04-29T08:35:59;101901.59;;;17.11;49.57
77263;BME280;66373;52.334;4.806;2023-04-29T08:38:29;101948.34;;;17.45;49.65
77263;BME280;66373;52.334;4.806;2023-04-29T08:40:56;101940.59;;;17.40;49.58
77263;BME280;66373;52.334;4.806;2023-04-29T08:43:24;101937.97;;;17.36;49.65
77263;BME280;66373;52.334;4.806;2023-04-29T08:45:52;101917.16;;;17.26;49.75
77263;BME280;66373;52.334;4.806;2023-04-29T08:48:21;101955.28;;;17.52;49.52
77263;BME280;66373;52.334;4.806;2023-04-29T08:50:48;101911.97;;;17.23;49.69
77263;BME280;66373;52.334;4.806;2023-04-29T08:53:15;101951.81;;;17.47;49.53
77263;BME280;66373;52.334;4.806;2023-04-29T08:55:46;101952.69;;;17.49;49.45
77263;BME280;66373;52.334;4.806;2023-04-29T08:58:16;101977.84;;;17.62;49.40
77263;BME280;66373;52.334;4.806;2023-04-29T09:00:44;101977.00;;;17.65;49.48
77263;BME280;66373;52.334;4.806;2023-04-29T09:03:15;101957.03;;;17.53;49.43
77263;BME280;66373;52.334;4.806;2023-04-29T09:05:44;101974.38;;;17.71;49.45
77263;BME280;66373;52.334;4.806;2023-04-29T09:08:15;101970.06;;;17.67;49.70
77263;BME280;66373;52.334;4.806;2023-04-29T09:10:44;101974.34;;;17.75;49.50
77263;BME280;66373;52.334;4.806;2023-04-29T09:13:24;101976.09;;;17.76;49.21
77263;BME280;66373;52.334;4.806;2023-04-29T09:15:53;101983.03;;;17.80;49.38
77263;BME280;66373;52.334;4.806;2023-04-29T09:18:42;101989.09;;;17.82;49.21
77263;BME280;66373;52.334;4.806;2023-04-29T09:21:15;101988.22;;;17.86;49.26
77263;BME280;66373;52.334;4.806;2023-04-29T09:23:43;101989.97;;;17.87;49.47
77263;BME280;66373;52.334;4.806;2023-04-29T09:26:11;101989.09;;;17.90;49.27
77263;BME280;66373;52.334;4.806;2023-04-29T09:28:38;101973.47;;;17.87;49.22
77263;BME280;66373;52.334;4.806;2023-04-29T09:31:10;101947.47;;;17.69;49.28
77263;BME280;66373;52.334;4.806;2023-04-29T09:33:51;101976.09;;;17.82;49.17
77263;BME280;66373;52.334;4.806;2023-04-29T09:36:39;101946.66;;;17.67;49.06
77263;BME280;66373;52.334;4.806;2023-04-29T09:42:41;101962.22;;;17.80;49.22
77263;BME280;66373;52.334;4.806;2023-04-29T09:45:08;101992.50;;;18.07;48.97
77263;BME280;66373;52.334;4.806;2023-04-29T09:47:36;101996.84;;;18.07;49.20
77263;BME280;66373;52.334;4.806;2023-04-29T09:50:13;101989.03;;;18.11;49.12
77263;BME280;66373;52.334;4.806;2023-04-29T09:52:44;102002.91;;;18.18;49.08
77263;BME280;66373;52.334;4.806;2023-04-29T09:55:12;101950.91;;;17.89;48.94
77263;BME280;66373;52.334;4.806;2023-04-29T09:57:43;101962.16;;;17.95;49.04
77263;BME280;66373;52.334;4.806;2023-04-29T10:00:12;101900.66;;;17.62;48.93
77263;BME280;66373;52.334;4.806;2023-04-29T10:02:41;101963.88;;;18.06;49.04
77263;BME280;66373;52.334;4.806;2023-04-29T10:05:08;101998.50;;;18.29;48.94
77263;BME280;66373;52.334;4.806;2023-04-29T10:07:38;102005.44;;;18.36;48.76
77263;BME280;66373;52.334;4.806;2023-04-29T10:10:06;102007.16;;;18.37;48.78
77263;BME280;66373;52.334;4.806;2023-04-29T10:12:39;101939.56;;;18.05;48.60
77263;BME280;66373;52.334;4.806;2023-04-29T10:15:17;101948.25;;;18.09;48.61
77263;BME280;66373;52.334;4.806;2023-04-29T10:17:49;102005.38;;;18.45;48.62
77263;BME280;66373;52.334;4.806;2023-04-29T10:20:21;101955.13;;;18.20;48.65
77263;BME280;66373;52.334;4.806;2023-04-29T10:22:53;101891.94;;;17.86;48.60
77263;BME280;66373;52.334;4.806;2023-04-29T10:25:24;101955.13;;;18.22;48.53
77263;BME280;66373;52.334;4.806;2023-04-29T10:27:55;101962.03;;;18.29;48.40
77263;BME280;66373;52.334;4.806;2023-04-29T10:30:25;101980.22;;;18.44;48.60
77263;BME280;66373;52.334;4.806;2023-04-29T10:32:54;101990.56;;;18.56;48.62
77263;BME280;66373;52.334;4.806;2023-04-29T10:35:24;101946.41;;;18.34;48.23
77263;BME280;66373;52.334;4.806;2023-04-29T10:37:52;102007.06;;;18.71;48.58
77263;BME280;66373;52.334;4.806;2023-04-29T10:40:25;101944.66;;;18.34;48.46
77263;BME280;66373;52.334;4.806;2023-04-29T10:42:56;102002.66;;;18.76;48.32
77263;BME280;66373;52.334;4.806;2023-04-29T10:45:25;101993.16;;;18.67;48.23
77263;BME280;66373;52.334;4.806;2023-04-29T10:48:13;101922.97;;;18.32;48.22
77263;BME280;66373;52.334;4.806;2023-04-29T10:51:02;102013.91;;;18.84;48.20
77263;BME280;66373;52.334;4.806;2023-04-29T10:53:32;102008.69;;;18.87;48.35
77263;BME280;66373;52.334;4.806;2023-04-29T10:56:06;101988.75;;;18.77;48.38
77263;BME280;66373;52.334;4.806;2023-04-29T10:58:41;101975.72;;;18.74;47.97
77263;BME280;66373;52.334;4.806;2023-04-29T11:01:26;102009.50;;;18.95;48.16
77263;BME280;66373;52.334;4.806;2023-04-29T11:04:04;101935.88;;;18.53;48.16
77263;BME280;66373;52.334;4.806;2023-04-29T11:06:39;101924.59;;;18.50;48.22
77263;BME280;66373;52.334;4.806;2023-04-29T11:09:09;102013.78;;;19.05;47.89
77263;BME280;66373;52.334;4.806;2023-04-29T11:11:59;101954.00;;;18.76;48.25
77263;BME280;66373;52.334;4.806;2023-04-29T11:14:30;101967.88;;;18.83;47.87
77263;BME280;66373;52.334;4.806;2023-04-29T11:17:02;101998.09;;;19.11;47.77
77263;BME280;66373;52.334;4.806;2023-04-29T11:19:31;102013.69;;;19.20;47.75
77263;BME280;66373;52.334;4.806;2023-04-29T11:22:13;101982.56;;;18.96;47.64
77263;BME280;66373;52.334;4.806;2023-04-29T11:24:52;101966.97;;;18.87;47.86
77263;BME280;66373;52.334;4.806;2023-04-29T11:27:21;101964.34;;;18.93;47.78
77263;BME280;66373;52.334;4.806;2023-04-29T11:29:50;101927.94;;;18.75;47.63
77263;BME280;66373;52.334;4.806;2023-04-29T11:32:21;101959.13;;;18.93;47.79
77263;BME280;66373;52.334;4.806;2023-04-29T11:34:50;102006.66;;;19.25;47.90
77263;BME280;66373;52.334;4.806;2023-04-29T11:37:22;101919.28;;;18.71;47.90
77263;BME280;66373;52.334;4.806;2023-04-29T11:39:58;101987.63;;;19.14;47.81
77263;BME280;66373;52.334;4.806;2023-04-29T11:42:25;102036.97;;;19.43;47.82
77263;BME280;66373;52.334;4.806;2023-04-29T11:44:54;101997.97;;;19.26;47.58
77263;BME280;66373;52.334;4.806;2023-04-29T11:47:29;102021.31;;;19.46;47.78
77263;BME280;66373;52.334;4.806;2023-04-29T11:50:04;101968.53;;;19.12;47.61
77263;BME280;66373;52.334;4.806;2023-04-29T11:52:33;101985.88;;;19.19;47.45
77263;BME280;66373;52.334;4.806;2023-04-29T11:55:01;101998.78;;;19.35;47.64
77263;BME280;66373;52.334;4.806;2023-04-29T11:57:29;102026.47;;;19.55;47.75
77263;BME280;66373;52.334;4.806;2023-04-29T11:59:57;101960.69;;;19.12;47.52
77263;BME280;66373;52.334;4.806;2023-04-29T12:02:29;101997.84;;;19.42;47.30
77263;BME280;66373;52.334;4.806;2023-04-29T12:04:57;102024.66;;;19.62;47.45
77263;BME280;66373;52.334;4.806;2023-04-29T12:07:25;102026.41;;;19.63;47.41
77263;BME280;66373;52.334;4.806;2023-04-29T12:09:54;101983.97;;;19.37;47.23
77263;BME280;66373;52.334;4.806;2023-04-29T12:12:22;101974.47;;;19.29;47.55
77263;BME280;66373;52.334;4.806;2023-04-29T12:14:49;102017.66;;;19.69;47.41
77263;BME280;66373;52.334;4.806;2023-04-29T12:17:16;101974.41;;;19.39;47.35
77263;BME280;66373;52.334;4.806;2023-04-29T12:19:45;102026.34;;;19.71;47.66
77263;BME280;66373;52.334;4.806;2023-04-29T12:22:13;101968.28;;;19.40;47.40
77263;BME280;66373;52.334;4.806;2023-04-29T12:24:40;101996.84;;;19.58;47.19
77263;BME280;66373;52.334;4.806;2023-04-29T12:27:08;101997.69;;;19.63;47.36
77263;BME280;66373;52.334;4.806;2023-04-29T12:29:36;101995.94;;;19.65;47.36
77263;BME280;66373;52.334;4.806;2023-04-29T12:32:03;102011.53;;;19.74;46.81
77263;BME280;66373;52.334;4.806;2023-04-29T12:34:31;102025.34;;;19.82;46.75
77263;BME280;66373;52.334;4.806;2023-04-29T12:37:02;102023.59;;;19.83;47.08
77263;BME280;66373;52.334;4.806;2023-04-29T12:39:30;102031.41;;;19.86;46.34
77263;BME280;66373;52.334;4.806;2023-04-29T12:41:58;101995.94;;;19.65;46.19
77263;BME280;66373;52.334;4.806;2023-04-29T12:44:33;102026.19;;;19.86;45.89
77263;BME280;66373;52.334;4.806;2023-04-29T12:47:07;102024.47;;;19.83;46.51
77263;BME280;66373;52.334;4.806;2023-04-29T12:49:34;102039.16;;;19.93;46.45
77263;BME280;66373;52.334;4.806;2023-04-29T12:52:03;102031.34;;;19.92;45.32
77263;BME280;66373;52.334;4.806;2023-04-29T12:54:30;102012.22;;;19.88;45.40
77263;BME280;66373;52.334;4.806;2023-04-29T12:56:57;101945.59;;;19.51;45.40
77263;BME280;66373;52.334;4.806;2023-04-29T12:59:25;102025.13;;;20.04;45.16
77263;BME280;66373;52.334;4.806;2023-04-29T13:01:52;102023.25;;;20.15;45.10
77263;BME280;66373;52.334;4.806;2023-04-29T13:04:19;102030.94;;;20.27;44.88
77263;BME280;66373;52.334;4.806;2023-04-29T13:06:46;102039.59;;;20.32;44.81
77263;BME280;66373;52.334;4.806;2023-04-29T13:09:14;102017.94;;;20.24;44.80